Time;durP1;ratioP1;P1;durP2;ratioP2;P2;SDS_P1;SDS_P2;PMS_P1;PMS_P2;Temp;Humidity;BMP_temperature;BMP_pressure;BME280_temperature;BME280_humidity;BME280_pressure;Samples;Min_cycle;Max_cycle;Signal;HPM_P1;HPM_P2
2022/08/04 00:00:35;;;;;;;7.93;4.88;;;;;;;-142.91;100.00;56616.03;5041802;28;20273;-67
2022/08/04 00:03:13;;;;;;;6.00;4.70;;;;;;;-142.91;100.00;56616.03;5046866;28;20294;-66
2022/08/04 00:05:54;;;;;;;5.93;5.32;;;;;;;-142.91;100.00;56616.03;5044503;28;21076;-67
2022/08/04 00:08:33;;;;;;;7.50;4.85;;;;;;;-142.91;100.00;56616.03;5045653;28;20206;-66
2022/08/04 00:11:02;;;;;;;5.70;5.15;;;;;;;-142.91;100.00;56616.03;5046907;28;20205;-68
2022/08/04 00:13:32;;;;;;;5.30;4.80;;;;;;;-142.91;100.00;56616.03;5040573;28;20211;-67
2022/08/04 00:16:04;;;;;;;5.38;4.97;;;;;;;-142.91;100.00;56616.03;5041300;28;20212;-66
2022/08/04 00:18:35;;;;;;;6.15;5.43;;;;;;;-142.91;100.00;56616.03;5045829;28;20270;-67
2022/08/04 00:21:07;;;;;;;7.22;5.70;;;;;;;-142.91;100.00;56616.03;5042718;28;20209;-67
2022/08/04 00:23:35;;;;;;;5.75;5.25;;;;;;;-142.91;100.00;56616.03;5040670;28;20211;-67
2022/08/04 00:26:03;;;;;;;5.80;5.25;;;;;;;-142.91;100.00;56616.03;5042310;28;20321;-66
2022/08/04 00:28:30;;;;;;;6.78;5.90;;;;;;;-142.91;100.00;56616.03;5041068;28;20290;-67
2022/08/04 00:30:57;;;;;;;6.00;5.50;;;;;;;-142.91;100.00;56616.03;5043883;28;20202;-66
2022/08/04 00:33:25;;;;;;;6.35;5.75;;;;;;;-142.91;100.00;56616.03;5042479;28;20205;-67
2022/08/04 00:35:52;;;;;;;6.28;5.38;;;;;;;-142.91;100.00;56616.03;5043226;28;20207;-67
2022/08/04 00:38:19;;;;;;;6.88;6.00;;;;;;;-142.91;100.00;56616.03;5045437;28;20206;-67
2022/08/04 00:40:58;;;;;;;6.13;5.60;;;;;;;-142.91;100.00;56616.03;5046146;28;20209;-67
2022/08/04 00:43:32;;;;;;;6.32;4.95;;;;;;;-142.91;100.00;56616.03;5047122;28;20946;-67
2022/08/04 00:46:27;;;;;;;5.90;5.30;;;;;;;-142.91;100.00;56616.03;5044894;28;20230;-65
2022/08/04 00:49:21;;;;;;;6.40;5.35;;;;;;;-142.91;100.00;56616.03;5045899;28;20205;-66
2022/08/04 00:51:56;;;;;;;5.35;4.85;;;;;;;-142.91;100.00;56616.03;5047223;28;20278;-67
2022/08/04 00:54:34;;;;;;;7.65;5.82;;;;;;;-142.91;100.00;56616.03;5045366;28;20321;-67
2022/08/04 00:57:22;;;;;;;5.10;4.70;;;;;;;-142.91;100.00;56616.03;5040354;28;20225;-66
2022/08/04 01:00:03;;;;;;;7.93;6.13;;;;;;;-142.91;100.00;56616.03;5042932;28;20623;-67
2022/08/04 01:02:36;;;;;;;7.53;6.72;;;;;;;-142.91;100.00;56616.03;5043272;28;20283;-67
2022/08/04 01:05:06;;;;;;;8.30;7.60;;;;;;;-142.91;100.00;56616.03;5043942;28;20334;-67
2022/08/04 01:08:05;;;;;;;6.65;6.05;;;;;;;-142.91;100.00;56616.03;5040908;28;20205;-66
2022/08/04 01:10:44;;;;;;;6.80;6.28;;;;;;;-142.91;100.00;56616.03;5029496;28;20210;-66
2022/08/04 01:13:26;;;;;;;9.00;8.15;;;;;;;-142.91;100.00;56616.03;5044611;28;20235;-66
2022/08/04 01:16:02;;;;;;;9.85;6.03;;;;;;;-142.91;100.00;56616.03;5044480;28;20572;-65
2022/08/04 01:18:36;;;;;;;6.05;5.55;;;;;;;-142.91;100.00;56616.03;5045533;28;20229;-67
2022/08/04 01:21:38;;;;;;;6.15;5.72;;;;;;;-142.91;100.00;56616.03;5043425;28;20213;-66
2022/08/04 01:24:25;;;;;;;9.60;7.82;;;;;;;-142.91;100.00;56616.03;5046382;28;20208;-67
2022/08/04 01:27:01;;;;;;;9.25;8.38;;;;;;;-142.91;100.00;56616.03;5044219;28;20231;-67
2022/08/04 01:29:35;;;;;;;6.72;6.32;;;;;;;-142.91;100.00;56616.03;5044579;28;20208;-66
2022/08/04 01:32:04;;;;;;;6.07;5.25;;;;;;;-142.91;100.00;56616.03;5043247;28;20717;-67
2022/08/04 01:34:35;;;;;;;5.65;5.10;;;;;;;-142.91;100.00;56616.03;5044480;28;20802;-66
2022/08/04 01:37:12;;;;;;;6.85;6.20;;;;;;;-142.91;100.00;56616.03;5039219;28;20202;-66
2022/08/04 01:39:44;;;;;;;6.80;6.22;;;;;;;-142.91;100.00;56616.03;5040930;28;20309;-67
2022/08/04 01:42:13;;;;;;;6.05;5.65;;;;;;;-142.91;100.00;56616.03;5039855;28;20649;-66
2022/08/04 01:44:41;;;;;;;7.50;6.72;;;;;;;-142.91;100.00;56616.03;5043216;28;20202;-67
2022/08/04 01:47:09;;;;;;;10.02;8.85;;;;;;;-142.91;100.00;56616.03;5043296;28;20722;-66
2022/08/04 01:49:39;;;;;;;12.00;6.57;;;;;;;-142.91;100.00;56616.03;5042263;28;20220;-67
2022/08/04 01:52:09;;;;;;;9.20;7.00;;;;;;;-142.91;100.00;56616.03;5041541;28;20767;-67
2022/08/04 01:54:41;;;;;;;7.50;6.95;;;;;;;-142.91;100.00;56616.03;5033742;28;20442;-67
2022/08/04 01:57:10;;;;;;;6.10;5.13;;;;;;;-142.91;100.00;56616.03;5038093;28;21921;-67
2022/08/04 01:59:38;;;;;;;5.47;5.07;;;;;;;-142.91;100.00;56616.03;5044233;28;20258;-67
2022/08/04 02:02:06;;;;;;;8.48;4.93;;;;;;;-142.91;100.00;56616.03;5041544;28;20237;-67
2022/08/04 02:04:35;;;;;;;5.85;4.60;;;;;;;-142.91;100.00;56616.03;5041439;28;20209;-66
2022/08/04 02:07:17;;;;;;;6.60;5.93;;;;;;;-142.91;100.00;56616.03;5040751;28;20705;-71
2022/08/04 02:09:52;;;;;;;5.03;4.50;;;;;;;-142.91;100.00;56616.03;5042404;28;20259;-67
2022/08/04 02:12:27;;;;;;;4.70;4.40;;;;;;;-142.91;100.00;56616.03;5042793;28;20200;-66
2022/08/04 02:14:59;;;;;;;4.28;4.07;;;;;;;-142.91;100.00;56616.03;5044647;28;20229;-67
2022/08/04 02:17:31;;;;;;;4.88;4.20;;;;;;;-142.91;100.00;56616.03;5043037;28;20856;-66
2022/08/04 02:20:07;;;;;;;6.07;4.25;;;;;;;-142.91;100.00;56616.03;5043321;28;20207;-67
2022/08/04 02:22:39;;;;;;;5.13;4.72;;;;;;;-142.91;100.00;56616.03;5041481;28;20204;-66
2022/08/04 02:25:08;;;;;;;4.70;4.40;;;;;;;-142.91;100.00;56616.03;5043166;28;20790;-67
2022/08/04 02:27:54;;;;;;;6.18;5.28;;;;;;;-142.91;100.00;56616.03;5043532;28;20202;-66
2022/08/04 02:30:22;;;;;;;6.00;4.72;;;;;;;-142.91;100.00;56616.03;5043350;28;20205;-68
2022/08/04 02:32:54;;;;;;;5.47;4.78;;;;;;;-142.91;100.00;56616.03;5043381;28;20307;-66
2022/08/04 02:35:26;;;;;;;8.00;4.38;;;;;;;-142.91;100.00;56616.03;5045730;28;20209;-66
2022/08/04 02:38:01;;;;;;;4.95;4.72;;;;;;;-142.91;100.00;56616.03;5044761;28;20286;-66
2022/08/04 02:40:30;;;;;;;4.57;4.32;;;;;;;-142.91;100.00;56616.03;5045535;28;20216;-67
2022/08/04 02:42:58;;;;;;;4.72;4.32;;;;;;;-142.91;100.00;56616.03;5044817;28;20207;-67
2022/08/04 02:45:26;;;;;;;5.80;5.25;;;;;;;-142.91;100.00;56616.03;5043890;28;20201;-67
2022/08/04 02:47:58;;;;;;;5.78;4.72;;;;;;;-142.91;100.00;56616.03;5044720;28;20205;-67
2022/08/04 02:50:26;;;;;;;4.63;4.22;;;;;;;-142.91;100.00;56616.03;5043876;28;20288;-67
2022/08/04 02:52:55;;;;;;;3.85;3.65;;;;;;;-142.91;100.00;56616.03;5044630;28;20201;-67
2022/08/04 02:55:23;;;;;;;5.97;5.13;;;;;;;-142.91;100.00;56616.03;5045316;28;20209;-67
2022/08/04 02:57:51;;;;;;;5.10;4.47;;;;;;;-142.91;100.00;56616.03;5045687;28;20202;-67
2022/08/04 03:00:18;;;;;;;4.95;4.55;;;;;;;-142.91;100.00;56616.03;5045207;28;20953;-66
2022/08/04 03:03:09;;;;;;;7.55;4.47;;;;;;;-142.91;100.00;56616.03;5043816;28;20234;-66
2022/08/04 03:05:53;;;;;;;4.95;4.63;;;;;;;-142.91;100.00;56616.03;5045957;28;20621;-66
2022/08/04 03:09:25;;;;;;;4.45;4.25;;;;;;;-142.91;100.00;56616.03;5043588;28;20209;-66
2022/08/04 03:12:10;;;;;;;4.10;3.80;;;;;;;-142.91;100.00;56616.03;4966978;28;20282;-66
2022/08/04 03:15:09;;;;;;;4.57;4.28;;;;;;;-142.91;100.00;56616.03;4965613;28;20200;-66
2022/08/04 03:18:05;;;;;;;4.82;4.53;;;;;;;-142.91;100.00;56616.03;5037133;28;20213;-66
2022/08/04 03:21:08;;;;;;;5.13;4.80;;;;;;;-142.91;100.00;56616.03;5047265;28;20204;-66
2022/08/04 03:24:07;;;;;;;4.60;4.30;;;;;;;-142.91;100.00;56616.03;5018477;28;20210;-66
2022/08/04 03:26:54;;;;;;;9.05;5.38;;;;;;;-142.91;100.00;56616.03;5046709;28;20213;-65
2022/08/04 03:29:54;;;;;;;5.43;5.07;;;;;;;-142.91;100.00;56616.03;5046510;28;20591;-66
2022/08/04 03:32:57;;;;;;;5.28;4.97;;;;;;;-142.91;100.00;56616.03;5047012;28;20197;-66
2022/08/04 03:35:45;;;;;;;7.28;5.05;;;;;;;-142.91;100.00;56616.03;5047014;28;20201;-66
2022/08/04 03:38:45;;;;;;;6.00;5.60;;;;;;;-142.91;100.00;56616.03;5045340;28;20228;-67
2022/08/04 03:41:42;;;;;;;10.00;4.70;;;;;;;-142.91;100.00;56616.03;5048760;28;20706;-66
2022/08/04 03:44:34;;;;;;;5.57;5.05;;;;;;;-142.91;100.00;56616.03;5049377;28;20219;-65
2022/08/04 03:47:33;;;;;;;4.70;4.13;;;;;;;-142.91;100.00;56616.03;5046571;28;20732;-66
2022/08/04 03:50:21;;;;;;;5.07;4.68;;;;;;;-142.91;100.00;56616.03;5048299;28;20205;-66
2022/08/04 03:53:24;;;;;;;4.68;4.35;;;;;;;-142.91;100.00;56616.03;5049532;28;20286;-67
2022/08/04 03:56:27;;;;;;;4.72;4.43;;;;;;;-142.91;100.00;56616.03;5047979;28;21503;-66
2022/08/04 03:59:22;;;;;;;4.13;3.83;;;;;;;-142.91;100.00;56616.03;5047692;28;20224;-66
2022/08/04 04:02:11;;;;;;;6.43;4.40;;;;;;;-142.91;100.00;56616.03;5049565;28;20225;-66
2022/08/04 04:04:53;;;;;;;5.18;4.78;;;;;;;-142.91;100.00;56616.03;5048499;28;20292;-68
2022/08/04 04:07:48;;;;;;;5.00;4.57;;;;;;;-142.91;100.00;56616.03;5047208;28;20776;-66
2022/08/04 04:10:40;;;;;;;5.15;4.68;;;;;;;-142.91;100.00;56616.03;5047101;28;20205;-66
2022/08/04 04:13:35;;;;;;;5.03;4.80;;;;;;;-142.91;100.00;56616.03;5047236;28;20209;-65
2022/08/04 04:16:30;;;;;;;7.53;4.65;;;;;;;-142.91;100.00;56616.03;5046796;28;20198;-66
2022/08/04 04:19:33;;;;;;;6.45;4.38;;;;;;;-142.91;100.00;56616.03;5046946;28;20644;-64
2022/08/04 04:22:22;;;;;;;5.60;5.13;;;;;;;-142.91;100.00;56616.03;5047046;28;20210;-66
2022/08/04 04:25:05;;;;;;;11.20;10.07;;;;;;;-142.91;100.00;56616.03;5046671;28;20601;-66
2022/08/04 04:27:43;;;;;;;17.58;10.70;;;;;;;-142.91;100.00;56616.03;5046076;28;20229;-65
2022/08/04 04:30:17;;;;;;;20.48;11.57;;;;;;;-142.91;100.00;56616.03;5048541;28;20197;-66
2022/08/04 04:32:59;;;;;;;14.43;11.85;;;;;;;-142.91;100.00;56616.03;5047166;28;20256;-66
2022/08/04 04:35:37;;;;;;;8.95;8.05;;;;;;;-142.91;100.00;56616.03;5046393;28;20262;-66
2022/08/04 04:38:34;;;;;;;8.63;7.75;;;;;;;-142.91;100.00;56616.03;5046085;28;20204;-67
2022/08/04 04:41:18;;;;;;;9.50;6.90;;;;;;;-142.91;100.00;56616.03;5013630;28;20262;-66
2022/08/04 04:44:19;;;;;;;9.77;5.95;;;;;;;-142.91;100.00;56616.03;5048381;28;20267;-65
2022/08/04 04:46:54;;;;;;;7.95;6.00;;;;;;;-142.91;100.00;56616.03;5045473;28;20300;-66
2022/08/04 04:49:29;;;;;;;7.50;5.72;;;;;;;-142.91;100.00;56616.03;5048706;28;20201;-66
2022/08/04 04:52:03;;;;;;;7.25;5.35;;;;;;;-142.91;100.00;56616.03;5045962;28;20205;-69
2022/08/04 04:54:37;;;;;;;5.80;5.32;;;;;;;-142.91;100.00;56616.03;5045381;28;20206;-67
2022/08/04 04:57:11;;;;;;;7.22;6.55;;;;;;;-142.91;100.00;56616.03;5046490;28;20225;-66
2022/08/04 04:59:57;;;;;;;9.77;6.50;;;;;;;-142.91;100.00;56616.03;5046803;28;20643;-66
2022/08/04 05:02:51;;;;;;;9.50;6.32;;;;;;;-142.91;100.00;56616.03;5053312;28;20237;-75
2022/08/04 05:06:05;;;;;;;7.57;5.40;;;;;;;-142.91;100.00;56616.03;5057300;28;20221;-75
2022/08/04 05:09:07;;;;;;;6.20;5.32;;;;;;;-142.91;100.00;56616.03;5010662;28;20219;-74
2022/08/04 05:12:07;;;;;;;7.45;6.85;;;;;;;-142.91;100.00;56616.03;5055735;28;20262;-74
2022/08/04 05:14:41;;;;;;;6.07;5.57;;;;;;;-142.91;100.00;56616.03;5055681;28;20230;-74
2022/08/04 05:17:17;;;;;;;6.28;5.88;;;;;;;-142.91;100.00;56616.03;5055039;28;20212;-74
2022/08/04 05:19:55;;;;;;;7.75;5.63;;;;;;;-142.91;100.00;56616.03;5055322;28;20221;-75
2022/08/04 05:22:28;;;;;;;8.40;6.30;;;;;;;-142.91;100.00;56616.03;5055705;28;20674;-75
2022/08/04 05:25:03;;;;;;;9.18;5.88;;;;;;;-142.91;100.00;56616.03;5055924;28;20202;-74
2022/08/04 05:27:37;;;;;;;7.47;5.57;;;;;;;-142.91;100.00;56616.03;5054689;28;20251;-74
2022/08/04 05:30:06;;;;;;;7.90;5.72;;;;;;;-142.91;100.00;56616.03;5053267;28;20212;-73
2022/08/04 05:32:40;;;;;;;5.97;5.57;;;;;;;-142.91;100.00;56616.03;5053884;28;21752;-74
2022/08/04 05:35:11;;;;;;;6.57;5.53;;;;;;;-142.91;100.00;56616.03;5056116;28;20198;-75
2022/08/04 05:37:41;;;;;;;7.18;4.80;;;;;;;-142.91;100.00;56616.03;5054808;28;20275;-74
2022/08/04 05:40:11;;;;;;;7.75;5.88;;;;;;;-142.91;100.00;56616.03;5053733;28;20235;-75
2022/08/04 05:42:39;;;;;;;10.02;6.22;;;;;;;-142.91;100.00;56616.03;5055939;28;20327;-74
2022/08/04 05:45:08;;;;;;;6.32;5.70;;;;;;;-142.91;100.00;56616.03;5055794;28;20208;-74
2022/08/04 05:47:37;;;;;;;10.40;5.85;;;;;;;-142.91;100.00;56616.03;5054285;28;20229;-75
2022/08/04 05:50:06;;;;;;;8.88;6.32;;;;;;;-142.91;100.00;56616.03;5055641;28;20197;-74
2022/08/04 05:52:36;;;;;;;7.00;6.30;;;;;;;-142.91;100.00;56616.03;5055787;28;20674;-74
2022/08/04 05:55:04;;;;;;;6.95;6.30;;;;;;;-142.91;100.00;56616.03;5054234;28;20320;-74
2022/08/04 05:57:32;;;;;;;7.55;6.95;;;;;;;-142.91;100.00;56616.03;5054360;28;20209;-75
2022/08/04 06:00:03;;;;;;;6.35;5.75;;;;;;;-142.91;100.00;56616.03;5056341;28;20207;-74
2022/08/04 06:02:30;;;;;;;11.43;7.32;;;;;;;-142.91;100.00;56616.03;5055228;28;20698;-75
2022/08/04 06:05:00;;;;;;;11.82;7.50;;;;;;;-142.91;100.00;56616.03;5054137;28;20227;-75
2022/08/04 06:07:27;;;;;;;9.13;8.45;;;;;;;-142.91;100.00;56616.03;5053811;28;22338;-74
2022/08/04 06:09:54;;;;;;;9.32;8.13;;;;;;;-142.91;100.00;56616.03;5054932;28;20202;-75
2022/08/04 06:12:25;;;;;;;8.55;7.80;;;;;;;-142.91;100.00;56616.03;5054709;28;20206;-74
2022/08/04 06:14:54;;;;;;;8.40;7.55;;;;;;;-142.91;100.00;56616.03;5055203;28;20208;-74
2022/08/04 06:17:24;;;;;;;7.55;6.25;;;;;;;-142.91;100.00;56616.03;5054349;28;21812;-74
2022/08/04 06:19:53;;;;;;;7.60;6.88;;;;;;;-142.91;100.00;56616.03;5055430;28;20226;-74
2022/08/04 06:22:23;;;;;;;8.45;7.60;;;;;;;-142.91;100.00;56616.03;5054955;28;20689;-75
2022/08/04 06:24:52;;;;;;;7.40;6.80;;;;;;;-142.91;100.00;56616.03;5055787;28;20236;-76
2022/08/04 06:27:20;;;;;;;7.93;6.88;;;;;;;-142.91;100.00;56616.03;5055439;28;20231;-73
2022/08/04 06:29:49;;;;;;;9.15;7.00;;;;;;;-142.91;100.00;56616.03;5054921;28;20311;-73
2022/08/04 06:32:27;;;;;;;6.68;6.05;;;;;;;-142.91;100.00;56616.03;5054805;28;20720;-74
2022/08/04 06:34:56;;;;;;;6.72;6.03;;;;;;;-142.91;100.00;56616.03;5055800;28;20216;-74
2022/08/04 06:37:26;;;;;;;7.68;6.93;;;;;;;-142.91;100.00;56616.03;5055393;28;20236;-74
2022/08/04 06:39:54;;;;;;;10.00;6.63;;;;;;;-142.91;100.00;56616.03;5057087;28;20712;-75
2022/08/04 06:42:24;;;;;;;7.75;7.03;;;;;;;-142.91;100.00;56616.03;5057238;28;20251;-74
2022/08/04 06:44:55;;;;;;;9.98;6.35;;;;;;;-142.91;100.00;56616.03;5057235;28;20622;-75
2022/08/04 06:47:22;;;;;;;8.23;6.13;;;;;;;-142.91;100.00;56616.03;5059420;28;20302;-73
2022/08/04 06:49:51;;;;;;;7.50;6.75;;;;;;;-142.91;100.00;56616.03;5060721;28;20209;-74
2022/08/04 06:52:19;;;;;;;11.05;6.22;;;;;;;-142.91;100.00;56616.03;5057915;28;20270;-74
2022/08/04 06:54:48;;;;;;;6.30;5.88;;;;;;;-142.91;100.00;56616.03;5058677;28;20206;-75
2022/08/04 06:57:19;;;;;;;10.18;6.93;;;;;;;-142.91;100.00;56616.03;5057167;28;20206;-74
2022/08/04 06:59:47;;;;;;;7.80;6.75;;;;;;;-142.91;100.00;56616.03;5060630;28;20324;-74
2022/08/04 07:02:17;;;;;;;6.20;5.70;;;;;;;-142.91;100.00;56616.03;5057749;28;20302;-73
2022/08/04 07:04:44;;;;;;;7.43;6.80;;;;;;;-142.91;100.00;56616.03;5058972;28;20208;-73
2022/08/04 07:07:11;;;;;;;6.95;6.45;;;;;;;-142.91;100.00;56616.03;5058179;28;20218;-75
2022/08/04 07:09:39;;;;;;;11.85;6.00;;;;;;;-142.91;100.00;56616.03;5058790;28;20228;-74
2022/08/04 07:12:08;;;;;;;7.50;6.45;;;;;;;-142.91;100.00;56616.03;5060431;28;20642;-74
2022/08/04 07:14:36;;;;;;;7.47;6.72;;;;;;;-142.91;100.00;56616.03;5059183;28;20259;-75
2022/08/04 07:17:04;;;;;;;8.05;5.57;;;;;;;-142.91;100.00;56616.03;5059271;28;20206;-75
2022/08/04 07:19:32;;;;;;;5.95;5.50;;;;;;;-142.91;100.00;56616.03;5057051;28;20208;-74
2022/08/04 07:22:00;;;;;;;7.18;6.43;;;;;;;-142.91;100.00;56616.03;5057154;28;20201;-74
2022/08/04 07:24:30;;;;;;;7.50;6.75;;;;;;;-142.91;100.00;56616.03;5056249;28;20332;-75
2022/08/04 07:26:57;;;;;;;8.15;6.40;;;;;;;-142.91;100.00;56616.03;5058178;28;20706;-74
2022/08/04 07:29:26;;;;;;;12.52;6.80;;;;;;;-142.91;100.00;56616.03;5059716;28;20201;-74
2022/08/04 07:31:54;;;;;;;6.15;5.72;;;;;;;-142.91;100.00;56616.03;5060007;28;20291;-74
2022/08/04 07:34:21;;;;;;;9.73;6.65;;;;;;;-142.91;100.00;56616.03;5058961;28;20200;-75
2022/08/04 07:36:48;;;;;;;7.85;7.15;;;;;;;-142.91;100.00;56616.03;5058195;28;20220;-75
2022/08/04 07:39:15;;;;;;;7.43;6.82;;;;;;;-142.91;100.00;56616.03;5058731;28;20209;-74
2022/08/04 07:41:43;;;;;;;8.02;7.32;;;;;;;-142.91;100.00;56616.03;5059516;28;20198;-73
2022/08/04 07:44:10;;;;;;;8.48;6.47;;;;;;;-142.91;100.00;56616.03;5058266;28;20202;-74
2022/08/04 07:46:39;;;;;;;12.13;6.88;;;;;;;-142.91;100.00;56616.03;5057816;28;20220;-74
2022/08/04 07:49:06;;;;;;;8.68;6.00;;;;;;;-142.91;100.00;56616.03;5058886;28;20256;-74
2022/08/04 07:51:35;;;;;;;7.97;5.53;;;;;;;-142.91;100.00;56616.03;5058630;28;20210;-75
2022/08/04 07:54:04;;;;;;;16.17;8.00;;;;;;;-142.91;100.00;56616.03;5056226;28;20263;-74
2022/08/04 07:56:31;;;;;;;13.45;7.90;;;;;;;-142.91;100.00;56616.03;5057736;28;20206;-73
2022/08/04 07:58:58;;;;;;;12.88;7.38;;;;;;;-142.91;100.00;56616.03;5056953;28;20198;-73
2022/08/04 08:01:25;;;;;;;8.15;7.45;;;;;;;-142.91;100.00;56616.03;5058542;28;20263;-74
2022/08/04 08:03:56;;;;;;;8.68;7.88;;;;;;;-142.91;100.00;56616.03;5057486;28;21523;-73
2022/08/04 08:06:24;;;;;;;9.30;6.78;;;;;;;-142.91;100.00;56616.03;5056267;28;20287;-74
2022/08/04 08:08:51;;;;;;;6.97;6.10;;;;;;;-142.91;100.00;56616.03;5056529;28;20290;-75
2022/08/04 08:11:19;;;;;;;8.45;6.57;;;;;;;-142.91;100.00;56616.03;5057853;28;20206;-73
2022/08/04 08:13:46;;;;;;;7.07;6.38;;;;;;;-142.91;100.00;56616.03;5057777;28;20322;-73
2022/08/04 08:16:13;;;;;;;6.93;6.43;;;;;;;-142.91;100.00;56616.03;5056549;28;20306;-73
2022/08/04 08:18:40;;;;;;;6.43;5.80;;;;;;;-142.91;100.00;56616.03;5055338;28;21183;-73
2022/08/04 08:21:09;;;;;;;7.38;6.72;;;;;;;-142.91;100.00;56616.03;5056291;28;20209;-73
2022/08/04 08:23:36;;;;;;;7.63;6.75;;;;;;;-142.91;100.00;56616.03;5055798;28;20212;-74
2022/08/04 08:26:05;;;;;;;9.60;6.80;;;;;;;-142.91;100.00;56616.03;5057286;28;20206;-74
2022/08/04 08:28:32;;;;;;;7.15;6.53;;;;;;;-142.91;100.00;56616.03;5057136;28;20225;-74
2022/08/04 08:30:59;;;;;;;9.50;6.10;;;;;;;-142.91;100.00;56616.03;5056611;28;20198;-74
2022/08/04 08:33:26;;;;;;;14.52;10.80;;;;;;;-142.91;100.00;56616.03;5056730;28;20221;-74
2022/08/04 08:36:04;;;;;;;14.18;8.68;;;;;;;-142.91;100.00;56616.03;5056414;28;20210;-74
2022/08/04 08:38:46;;;;;;;7.40;6.68;;;;;;;-142.91;100.00;56616.03;5055519;28;20209;-75
2022/08/04 08:41:34;;;;;;;7.25;6.50;;;;;;;-142.91;100.00;56616.03;5056244;28;20231;-75
2022/08/04 08:44:11;;;;;;;7.50;5.75;;;;;;;-142.91;100.00;56616.03;5056336;28;21127;-75
2022/08/04 08:46:53;;;;;;;9.88;5.25;;;;;;;-142.91;100.00;56616.03;5056247;28;20213;-76
2022/08/04 08:49:50;;;;;;;7.45;5.55;;;;;;;-142.91;100.00;56616.03;5054461;28;20245;-74
2022/08/04 08:52:43;;;;;;;6.15;5.65;;;;;;;-142.91;100.00;56616.03;5012218;28;20704;-75
2022/08/04 08:55:26;;;;;;;6.05;5.63;;;;;;;-142.91;100.00;56616.03;5055158;28;20201;-75
2022/08/04 08:58:06;;;;;;;6.10;4.93;;;;;;;-142.91;100.00;56616.03;5055959;28;20201;-75
2022/08/04 09:00:42;;;;;;;5.45;5.05;;;;;;;-142.91;100.00;56616.03;5055516;28;20998;-75
2022/08/04 09:03:38;;;;;;;9.27;4.68;;;;;;;-142.91;100.00;56616.03;5055332;28;20307;-75
2022/08/04 09:06:27;;;;;;;14.88;4.95;;;;;;;-142.91;100.00;56616.03;5056030;28;21087;-74
2022/08/04 09:09:11;;;;;;;7.00;4.85;;;;;;;-142.91;100.00;56616.03;5051144;28;20221;-75
2022/08/04 09:11:44;;;;;;;5.55;5.00;;;;;;;-142.91;100.00;56616.03;5056844;28;20200;-74
2022/08/04 09:14:19;;;;;;;4.72;4.32;;;;;;;-142.91;100.00;56616.03;5056866;28;20217;-76
2022/08/04 09:16:53;;;;;;;4.32;3.92;;;;;;;-142.91;100.00;56616.03;5055520;28;20212;-77
2022/08/04 09:19:25;;;;;;;8.18;4.25;;;;;;;-142.91;100.00;56616.03;5054612;28;21356;-76
2022/08/04 09:21:58;;;;;;;7.43;4.32;;;;;;;-142.91;100.00;56616.03;5057430;28;20205;-76
2022/08/04 09:24:34;;;;;;;5.70;4.22;;;;;;;-142.91;100.00;56616.03;5052023;28;20218;-75
2022/08/04 09:27:08;;;;;;;6.45;4.80;;;;;;;-142.91;100.00;56616.03;5053358;28;20205;-75
2022/08/04 09:29:41;;;;;;;9.73;4.60;;;;;;;-142.91;100.00;56616.03;5057558;28;20305;-76
2022/08/04 09:32:17;;;;;;;9.80;4.53;;;;;;;-142.91;100.00;56616.03;5055291;28;20212;-76
2022/08/04 09:34:52;;;;;;;22.60;16.90;;;;;;;-142.91;100.00;56616.03;5051478;28;20202;-75
2022/08/04 09:37:30;;;;;;;9.52;7.05;;;;;;;-142.91;100.00;56616.03;5054545;28;20209;-78
2022/08/04 09:40:04;;;;;;;17.52;14.43;;;;;;;-142.91;100.00;56616.03;5051277;28;20201;-80
2022/08/04 09:42:44;;;;;;;9.55;8.07;;;;;;;-142.91;100.00;56616.03;5043699;28;20221;-72
2022/08/04 09:45:19;;;;;;;5.18;4.68;;;;;;;-142.91;100.00;56616.03;5038646;28;20282;-76
2022/08/04 09:47:51;;;;;;;7.32;6.18;;;;;;;-142.91;100.00;56616.03;5043271;28;20663;-74
2022/08/04 09:50:29;;;;;;;6.30;4.85;;;;;;;-142.91;100.00;56616.03;5043872;28;20703;-71
2022/08/04 09:53:11;;;;;;;5.25;4.53;;;;;;;-142.91;100.00;56616.03;5043279;28;20208;-72
2022/08/04 09:55:55;;;;;;;7.82;3.95;;;;;;;-142.91;100.00;56616.03;5046815;28;20198;-73
2022/08/04 09:58:36;;;;;;;6.45;3.90;;;;;;;-142.91;100.00;56616.03;5047756;28;20202;-73
2022/08/04 10:01:06;;;;;;;4.38;3.35;;;;;;;-142.91;100.00;56616.03;5049039;28;20300;-72
2022/08/04 10:03:37;;;;;;;3.38;3.03;;;;;;;-142.91;100.00;56616.03;5050536;28;20669;-73
2022/08/04 10:06:31;;;;;;;4.97;3.28;;;;;;;-142.91;100.00;56616.03;5048647;28;20229;-73
2022/08/04 10:09:08;;;;;;;2.85;2.75;;;;;;;-142.91;100.00;56616.03;5047222;28;20315;-72
2022/08/04 10:11:52;;;;;;;4.40;3.70;;;;;;;-142.91;100.00;56616.03;5047343;28;20201;-72
2022/08/04 10:14:37;;;;;;;11.07;9.88;;;;;;;-142.91;100.00;56616.03;5051948;28;20207;-72
2022/08/04 10:17:20;;;;;;;34.63;24.40;;;;;;;-142.91;100.00;56616.03;5049099;28;20684;-74
2022/08/04 10:19:54;;;;;;;9.02;8.13;;;;;;;-142.91;100.00;56616.03;5052989;28;20742;-72
2022/08/04 10:22:26;;;;;;;33.88;25.30;;;;;;;-142.91;100.00;56616.03;5051489;28;20431;-70
2022/08/04 10:25:00;;;;;;;3.63;3.42;;;;;;;-142.91;100.00;56616.03;5049802;28;20591;-74
2022/08/04 10:27:33;;;;;;;6.30;5.90;;;;;;;-142.91;100.00;56616.03;5049460;28;20189;-72
2022/08/04 10:30:10;;;;;;;9.13;4.43;;;;;;;-142.91;100.00;56616.03;5056800;28;20197;-79
2022/08/04 10:32:44;;;;;;;5.13;2.20;;;;;;;-142.91;100.00;56616.03;5061491;28;20201;-78
2022/08/04 10:35:14;;;;;;;2.35;2.25;;;;;;;-142.91;100.00;56616.03;5060533;28;20314;-79
2022/08/04 10:37:55;;;;;;;3.40;3.20;;;;;;;-142.91;100.00;56616.03;5063163;28;20212;-80
2022/08/04 10:40:41;;;;;;;3.33;2.50;;;;;;;-142.91;100.00;56616.03;5061813;28;20210;-80
2022/08/04 10:43:32;;;;;;;3.33;2.28;;;;;;;-142.91;100.00;56616.03;5062283;28;20205;-79
2022/08/04 10:46:05;;;;;;;5.05;3.08;;;;;;;-142.91;100.00;56616.03;5061892;28;20201;-80
2022/08/04 10:48:40;;;;;;;3.38;2.50;;;;;;;-142.91;100.00;56616.03;5059480;28;20692;-80
2022/08/04 10:51:16;;;;;;;3.00;2.35;;;;;;;-142.91;100.00;56616.03;5062234;28;20213;-77
2022/08/04 10:53:44;;;;;;;2.58;2.45;;;;;;;-142.91;100.00;56616.03;5060710;28;20290;-79
2022/08/04 10:56:28;;;;;;;3.47;3.17;;;;;;;-142.91;100.00;56616.03;5060217;28;20198;-76
2022/08/04 10:59:02;;;;;;;3.65;2.88;;;;;;;-142.91;100.00;56616.03;5062078;28;20205;-76
2022/08/04 11:01:36;;;;;;;2.53;2.40;;;;;;;-142.91;100.00;56616.03;5061275;28;20209;-79
2022/08/04 11:04:09;;;;;;;2.50;2.40;;;;;;;-142.91;100.00;56616.03;5063142;28;20220;-80
2022/08/04 11:06:38;;;;;;;2.42;2.22;;;;;;;-142.91;100.00;56616.03;5062295;28;20245;-81
2022/08/04 11:09:05;;;;;;;2.60;2.50;;;;;;;-142.91;100.00;56616.03;5061676;28;20225;-79
2022/08/04 11:11:39;;;;;;;5.05;2.50;;;;;;;-142.91;100.00;56616.03;5063497;28;20209;-80
2022/08/04 11:14:10;;;;;;;2.40;2.30;;;;;;;-142.91;100.00;56616.03;5061550;28;20209;-75
2022/08/04 11:16:43;;;;;;;62.00;47.30;;;;;;;-142.91;100.00;56616.03;5064230;28;20206;-78
2022/08/04 11:19:25;;;;;;;5.45;5.10;;;;;;;-142.91;100.00;56616.03;5071740;28;20248;-78
2022/08/04 11:21:56;;;;;;;2.25;2.15;;;;;;;-142.91;100.00;56616.03;5068233;28;20225;-79
2022/08/04 11:24:28;;;;;;;2.70;2.60;;;;;;;-142.91;100.00;56616.03;5062944;28;20222;-79
2022/08/04 11:26:59;;;;;;;2.95;2.20;;;;;;;-142.91;100.00;56616.03;5061582;28;20202;-79
2022/08/04 11:29:32;;;;;;;3.25;2.95;;;;;;;-142.91;100.00;56616.03;5060049;28;20306;-76
2022/08/04 11:32:03;;;;;;;2.17;2.08;;;;;;;-142.91;100.00;56616.03;5062403;28;20202;-78
2022/08/04 11:34:33;;;;;;;4.20;2.28;;;;;;;-142.91;100.00;56616.03;5062280;28;20202;-79
2022/08/04 11:37:09;;;;;;;4.05;3.80;;;;;;;-142.91;100.00;56616.03;5063560;28;20202;-79
2022/08/04 11:39:39;;;;;;;3.55;3.35;;;;;;;-142.91;100.00;56616.03;5062078;28;20336;-78
2022/08/04 11:42:15;;;;;;;3.10;2.80;;;;;;;-142.91;100.00;56616.03;5061118;28;20210;-79
2022/08/04 11:44:48;;;;;;;2.55;2.45;;;;;;;-142.91;100.00;56616.03;5073672;28;20231;-76
2022/08/04 11:47:29;;;;;;;2.88;2.70;;;;;;;-142.91;100.00;56616.03;5074266;28;20206;-78
2022/08/04 11:50:02;;;;;;;4.30;3.80;;;;;;;-142.91;100.00;56616.03;5074127;28;20218;-78